createdAt,value
2023-03-12T00:00:25.340Z,97677.06
2023-03-12T00:03:32.067Z,97683.63
2023-03-12T00:06:37.917Z,97685.34
2023-03-12T00:09:45.433Z,97688.72
2023-03-12T00:12:51.341Z,97691.63
2023-03-12T00:16:00.673Z,97694.13
2023-03-12T00:19:06.568Z,97706.59
2023-03-12T00:22:13.087Z,97700.75
2023-03-12T00:25:21.263Z,97712.84
2023-03-12T00:28:27.916Z,97708.34
2023-03-12T00:31:37.388Z,97706.88
2023-03-12T00:34:44.602Z,97708.38
2023-03-12T00:37:50.288Z,97711.16
2023-03-12T00:40:56.930Z,97718.25
2023-03-12T00:44:03.077Z,97716.63
2023-03-12T00:47:13.225Z,97707.63
2023-03-12T00:50:19.586Z,97719.88
2023-03-12T00:53:26.279Z,97722.88
2023-03-12T00:56:32.062Z,97726.16
2023-03-12T00:59:40.609Z,97726.84
2023-03-12T01:02:49.436Z,97727.53
2023-03-12T01:05:57.562Z,97723.72
2023-03-12T01:09:05.655Z,97722.19
2023-03-12T01:12:12.552Z,97720.81
2023-03-12T01:15:21.331Z,97720.91
2023-03-12T01:18:30.659Z,97715.00
2023-03-12T01:21:36.361Z,97704.47
2023-03-12T01:24:43.383Z,97703.22
2023-03-12T01:27:49.267Z,97707.03
2023-03-12T01:30:56.404Z,97702.47
2023-03-12T01:34:04.828Z,97705.47
2023-03-12T01:37:11.598Z,97705.81
2023-03-12T01:40:19.825Z,97707.91
2023-03-12T01:43:33.062Z,97711.50
2023-03-12T01:46:43.279Z,97717.56
2023-03-12T01:50:06.252Z,97716.88
2023-03-12T01:53:12.362Z,97712.16
2023-03-12T01:56:22.412Z,97719.59
2023-03-12T01:59:36.499Z,97718.81
2023-03-12T02:02:46.327Z,97721.66
2023-03-12T02:06:09.656Z,97725.88
2023-03-12T02:09:20.302Z,97727.66
2023-03-12T02:12:27.659Z,97735.03
2023-03-12T02:15:36.927Z,97734.91
2023-03-12T02:18:42.997Z,97742.44
2023-03-12T02:21:52.983Z,97738.06
2023-03-12T02:25:10.714Z,97749.00
2023-03-12T02:28:24.712Z,97749.91
2023-03-12T02:31:40.489Z,97752.06
2023-03-12T02:34:48.246Z,97755.00
2023-03-12T02:37:57.944Z,97759.84
2023-03-12T02:41:10.332Z,97768.41
2023-03-12T02:44:25.289Z,97771.00
2023-03-12T02:47:33.037Z,97770.78
2023-03-12T02:50:38.987Z,97774.91
2023-03-12T02:53:46.780Z,97777.72
2023-03-12T02:56:54.028Z,97775.97
2023-03-12T03:00:04.440Z,97783.13
2023-03-12T03:03:10.610Z,97782.66
2023-03-12T03:06:18.332Z,97784.22
2023-03-12T03:09:24.585Z,97782.91
2023-03-12T03:12:31.455Z,97789.00
2023-03-12T03:15:41.845Z,97797.94
2023-03-12T03:18:48.740Z,97796.16
2023-03-12T03:21:54.575Z,97800.50
2023-03-12T03:25:01.619Z,97810.38
2023-03-12T03:28:08.345Z,97808.03
2023-03-12T03:31:18.105Z,97815.19
2023-03-12T03:34:24.042Z,97815.78
2023-03-12T03:37:30.891Z,97822.22
2023-03-12T03:40:38.372Z,97820.59
2023-03-12T03:43:45.379Z,97832.53
2023-03-12T03:46:56.336Z,97831.13
2023-03-12T03:50:15.271Z,97837.56
2023-03-12T03:53:22.154Z,97836.63
2023-03-12T03:56:29.462Z,97837.94
2023-03-12T03:59:37.112Z,97835.56
2023-03-12T04:02:47.013Z,97836.16
2023-03-12T04:05:58.515Z,97839.56
2023-03-12T04:09:06.270Z,97838.59
2023-03-12T04:12:14.757Z,97842.25
2023-03-12T04:15:22.295Z,97843.72
2023-03-12T04:18:34.354Z,97843.38
2023-03-12T04:21:44.446Z,97844.53
2023-03-12T04:24:55.723Z,97847.22
2023-03-12T04:28:03.147Z,97846.75
2023-03-12T04:31:11.305Z,97854.09
2023-03-12T04:34:25.350Z,97857.72
2023-03-12T04:37:36.073Z,97858.53
2023-03-12T04:40:44.335Z,97861.00
2023-03-12T04:43:50.638Z,97867.25
2023-03-12T04:46:58.552Z,97860.66
2023-03-12T04:50:09.482Z,97870.06
2023-03-12T04:53:16.261Z,97867.03
2023-03-12T04:56:22.266Z,97873.13
2023-03-12T04:59:31.898Z,97866.09
2023-03-12T05:02:37.889Z,97880.75
2023-03-12T05:05:47.482Z,97867.63
2023-03-12T05:08:55.116Z,97878.88
2023-03-12T05:12:01.948Z,97878.06
2023-03-12T05:15:09.516Z,97881.34
2023-03-12T05:18:17.555Z,97883.81
2023-03-12T05:21:26.421Z,97880.53
2023-03-12T05:24:35.332Z,97891.66
2023-03-12T05:27:41.805Z,97894.13
2023-03-12T05:30:49.483Z,97895.66
2023-03-12T05:33:56.780Z,97899.41
2023-03-12T05:37:06.581Z,97907.50
2023-03-12T05:40:15.842Z,97909.31
2023-03-12T05:43:22.814Z,97911.44
2023-03-12T05:46:31.018Z,97920.00
2023-03-12T05:49:39.351Z,97915.22
2023-03-12T05:52:47.808Z,97920.97
2023-03-12T05:55:54.494Z,97929.47
2023-03-12T05:59:00.786Z,97930.63
2023-03-12T06:02:08.899Z,97931.84
2023-03-12T06:05:15.920Z,97929.50
2023-03-12T06:08:25.170Z,97929.25
2023-03-12T06:11:32.331Z,97932.53
2023-03-12T06:14:39.000Z,97941.75
2023-03-12T06:17:45.796Z,97942.31
2023-03-12T06:20:52.327Z,97944.56
2023-03-12T06:24:01.528Z,97958.53
2023-03-12T06:27:27.449Z,97956.53
2023-03-12T06:30:33.306Z,97947.38
2023-03-12T06:33:40.033Z,97952.31
2023-03-12T06:36:45.828Z,97954.19
2023-03-12T06:39:55.405Z,97965.59
2023-03-12T06:43:01.145Z,97954.91
2023-03-12T06:46:11.661Z,97969.00
2023-03-12T06:49:18.135Z,97971.25
2023-03-12T06:52:24.715Z,97978.28
2023-03-12T06:55:32.985Z,97988.38
2023-03-12T06:58:39.816Z,97988.84
2023-03-12T07:01:45.720Z,97980.38
2023-03-12T07:04:52.511Z,97989.78
2023-03-12T07:07:58.423Z,97983.91
2023-03-12T07:11:08.177Z,97987.19
2023-03-12T07:14:14.419Z,97992.13
2023-03-12T07:17:21.054Z,97986.84
2023-03-12T07:20:26.933Z,97980.03
2023-03-12T07:23:33.599Z,97985.25
2023-03-12T07:26:43.770Z,97987.03
2023-03-12T07:29:50.471Z,97981.25
2023-03-12T07:32:56.280Z,97980.81
2023-03-12T07:36:04.021Z,97993.25
2023-03-12T07:39:09.914Z,97994.34
2023-03-12T07:42:19.166Z,97992.94
2023-03-12T07:45:27.843Z,97989.94
2023-03-12T07:48:34.641Z,97984.19
2023-03-12T07:51:40.762Z,97979.94
2023-03-12T07:54:48.058Z,97980.38
2023-03-12T07:57:58.660Z,97969.59
2023-03-12T08:01:06.796Z,97984.78
2023-03-12T08:04:13.676Z,97981.13
2023-03-12T08:07:20.659Z,97982.97
2023-03-12T08:10:27.101Z,97978.16
2023-03-12T08:13:36.895Z,97976.63
2023-03-12T08:16:42.611Z,97966.09
2023-03-12T08:19:49.429Z,97978.25
2023-03-12T08:22:55.269Z,97976.63
2023-03-12T08:26:02.407Z,97984.28
2023-03-12T08:29:10.943Z,97984.25
2023-03-12T08:32:18.124Z,97983.41
2023-03-12T08:35:23.973Z,97981.97
2023-03-12T08:38:30.812Z,97986.47
2023-03-12T08:41:36.725Z,97999.78
2023-03-12T08:44:46.091Z,97992.22
2023-03-12T08:47:51.884Z,97992.53
2023-03-12T08:50:59.885Z,97994.44
2023-03-12T08:54:05.819Z,97993.38
2023-03-12T08:57:12.437Z,97998.84
2023-03-12T09:00:22.404Z,97995.81
2023-03-12T09:03:29.783Z,97996.22
2023-03-12T09:06:36.593Z,97996.75
2023-03-12T09:09:43.644Z,97992.22
2023-03-12T09:12:49.350Z,97994.75
2023-03-12T09:16:03.172Z,97984.00
2023-03-12T09:19:09.161Z,97988.72
2023-03-12T09:22:16.267Z,97986.91
2023-03-12T09:25:23.543Z,97981.47
2023-03-12T09:28:30.377Z,97981.09
2023-03-12T09:31:38.831Z,97987.34
2023-03-12T09:34:45.602Z,97996.28
2023-03-12T09:37:52.875Z,97996.59
2023-03-12T09:40:59.528Z,98001.44
2023-03-12T09:44:16.836Z,97997.28
2023-03-12T09:47:37.631Z,98003.06
2023-03-12T09:50:49.162Z,98005.50
2023-03-12T09:54:03.310Z,98004.19
2023-03-12T09:57:21.188Z,98000.38
2023-03-12T10:00:34.736Z,98006.19
2023-03-12T10:04:18.513Z,98000.78
2023-03-12T10:07:38.531Z,98000.06
2023-03-12T10:10:58.477Z,97995.72
2023-03-12T10:14:32.001Z,97991.19
2023-03-12T10:18:02.924Z,97993.75
2023-03-12T10:21:32.435Z,97996.50
2023-03-12T10:25:02.299Z,97993.78
2023-03-12T10:28:22.193Z,97983.91
2023-03-12T10:31:35.035Z,97980.78
2023-03-12T10:34:48.788Z,97974.00
2023-03-12T10:38:01.722Z,97985.19
2023-03-12T10:41:24.330Z,97982.41
2023-03-12T10:44:32.515Z,97983.63
2023-03-12T10:47:41.679Z,97983.09
2023-03-12T10:51:03.805Z,97991.94
2023-03-12T10:54:26.541Z,97992.50
2023-03-12T10:57:45.276Z,97991.88
2023-03-12T11:01:01.274Z,98002.47
2023-03-12T11:04:26.937Z,98005.09
2023-03-12T11:07:37.428Z,97988.53
2023-03-12T11:10:52.459Z,97995.88
2023-03-12T11:14:18.592Z,97989.91
2023-03-12T11:17:30.316Z,97995.94
2023-03-12T11:20:37.077Z,97993.53
2023-03-12T11:23:48.429Z,97996.34
2023-03-12T11:27:10.763Z,97993.19
2023-03-12T11:30:24.785Z,97989.47
2023-03-12T11:33:32.288Z,97983.78
2023-03-12T11:36:54.405Z,97989.50
2023-03-12T11:40:32.188Z,97977.78
2023-03-12T11:44:07.813Z,97984.03
2023-03-12T11:47:41.048Z,97979.03
2023-03-12T11:51:13.636Z,97987.94
2023-03-12T11:54:48.723Z,97979.22
2023-03-12T11:58:20.401Z,97983.59
2023-03-12T12:01:54.517Z,97978.16
2023-03-12T12:05:30.788Z,97978.66
2023-03-12T12:09:01.926Z,97988.19
2023-03-12T12:12:42.293Z,97975.31
2023-03-12T12:16:08.108Z,97986.41
2023-03-12T12:19:39.315Z,97980.75
2023-03-12T12:23:08.453Z,97984.13
2023-03-12T12:26:21.356Z,97981.91
2023-03-12T12:29:56.829Z,97986.19
2023-03-12T12:33:27.939Z,97976.75
2023-03-12T12:36:39.749Z,97974.56
2023-03-12T12:39:59.418Z,97975.97
2023-03-12T12:43:28.272Z,97970.41
2023-03-12T12:46:40.550Z,97976.31
2023-03-12T12:49:52.292Z,97975.84
2023-03-12T12:53:17.043Z,97962.81
2023-03-12T12:56:36.625Z,97970.94
2023-03-12T12:59:52.288Z,97970.50
2023-03-12T13:03:01.100Z,97961.78
2023-03-12T13:06:11.543Z,97968.00
2023-03-12T13:09:37.099Z,97972.25
2023-03-12T13:12:55.725Z,97976.38
2023-03-12T13:16:30.058Z,97970.38
2023-03-12T13:19:51.979Z,97969.81
2023-03-12T13:23:34.542Z,97982.50
2023-03-12T13:27:01.189Z,97979.66
2023-03-12T13:30:51.367Z,97989.91
2023-03-12T13:34:02.543Z,97979.34
2023-03-12T13:37:30.689Z,97984.47
2023-03-12T13:41:00.985Z,97984.28
2023-03-12T13:44:42.466Z,97978.41
2023-03-12T13:47:50.061Z,97981.09
2023-03-12T13:51:01.493Z,97982.25
2023-03-12T13:54:08.619Z,97981.81
2023-03-12T13:57:29.328Z,97992.81
2023-03-12T14:00:52.142Z,97994.41
2023-03-12T14:04:07.069Z,97998.19
2023-03-12T14:08:14.433Z,97991.91
2023-03-12T14:11:44.202Z,97999.94
2023-03-12T14:15:23.045Z,98002.00
2023-03-12T14:18:39.016Z,97991.56
2023-03-12T14:21:51.251Z,98001.22
2023-03-12T14:25:07.889Z,97989.22
2023-03-12T14:28:21.625Z,97996.44
2023-03-12T14:31:32.143Z,98002.88
2023-03-12T14:34:49.379Z,98015.28
2023-03-12T14:38:06.350Z,98002.38
2023-03-12T14:41:22.593Z,98003.69
2023-03-12T14:44:32.491Z,98005.94
2023-03-12T14:47:44.208Z,98007.53
2023-03-12T14:50:55.101Z,97998.19
2023-03-12T14:54:07.406Z,98007.31
2023-03-12T14:57:24.767Z,98002.47
2023-03-12T15:00:32.858Z,98000.66
2023-03-12T15:03:48.341Z,98000.41
2023-03-12T15:07:04.519Z,98002.28
2023-03-12T15:10:25.471Z,97997.63
2023-03-12T15:13:32.528Z,97998.25
2023-03-12T15:16:40.071Z,97995.47
2023-03-12T15:19:46.998Z,98015.38
2023-03-12T15:22:57.404Z,98016.28
2023-03-12T15:26:15.978Z,98013.38
2023-03-12T15:29:30.423Z,98014.03
2023-03-12T15:32:36.545Z,98009.97
2023-03-12T15:36:00.339Z,97998.03
2023-03-12T15:39:29.870Z,97988.22
2023-03-12T15:42:46.577Z,97998.19
2023-03-12T15:46:03.087Z,97994.09
2023-03-12T15:49:24.231Z,98004.66
2023-03-12T15:52:35.665Z,98006.09
2023-03-12T15:55:45.344Z,98017.63
2023-03-12T15:59:05.709Z,98000.09
2023-03-12T16:02:15.325Z,98004.00
2023-03-12T16:05:23.244Z,98011.09
2023-03-12T16:08:39.580Z,98001.41
2023-03-12T16:11:48.404Z,98007.81
2023-03-12T16:14:56.015Z,97999.81
2023-03-12T16:18:02.979Z,97989.56
2023-03-12T16:21:09.924Z,98013.31
2023-03-12T16:24:17.330Z,98000.25
2023-03-12T16:27:32.493Z,97999.69
2023-03-12T16:30:40.539Z,98010.47
2023-03-12T16:33:47.671Z,98003.25
2023-03-12T16:36:54.295Z,98012.59
2023-03-12T16:40:01.657Z,98019.91
2023-03-12T16:43:21.506Z,98016.59
2023-03-12T16:46:33.863Z,98013.69
2023-03-12T16:49:39.789Z,98011.97
2023-03-12T16:52:51.275Z,98019.25
2023-03-12T16:56:01.104Z,98033.25
2023-03-12T16:59:26.112Z,98021.25
2023-03-12T17:02:32.554Z,98013.19
2023-03-12T17:05:39.214Z,98014.75
2023-03-12T17:08:46.161Z,98012.03
2023-03-12T17:11:55.626Z,98009.22
2023-03-12T17:15:07.801Z,98005.28
2023-03-12T17:18:15.454Z,98004.09
2023-03-12T17:21:22.968Z,97998.31
2023-03-12T17:24:29.695Z,97987.16
2023-03-12T17:27:35.696Z,97991.19
2023-03-12T17:30:47.536Z,97983.34
2023-03-12T17:33:53.574Z,97975.97
2023-03-12T17:37:00.239Z,97985.22
2023-03-12T17:40:08.328Z,97984.09
2023-03-12T17:43:15.309Z,97984.50
2023-03-12T17:46:24.069Z,97992.16
2023-03-12T17:49:32.384Z,98007.41
2023-03-12T17:52:38.340Z,98008.47
2023-03-12T17:55:45.766Z,97980.81
2023-03-12T17:58:51.871Z,97979.28
2023-03-12T18:02:01.091Z,97971.31
2023-03-12T18:05:07.549Z,97958.97
2023-03-12T18:08:15.317Z,97960.16
2023-03-12T18:11:21.105Z,97962.25
2023-03-12T18:14:28.067Z,97961.25
2023-03-12T18:17:36.569Z,97964.47
2023-03-12T18:20:43.424Z,97972.88
2023-03-12T18:23:49.138Z,97969.16
2023-03-12T18:26:55.732Z,97967.53
2023-03-12T18:30:01.490Z,97975.19
2023-03-12T18:33:10.743Z,97976.81
2023-03-12T18:36:16.706Z,97987.25
2023-03-12T18:39:23.737Z,97994.78
2023-03-12T18:42:29.956Z,97998.88
2023-03-12T18:45:36.543Z,97989.50
2023-03-12T18:48:44.912Z,97970.88
2023-03-12T18:51:53.617Z,97962.91
2023-03-12T18:54:59.480Z,97962.69
2023-03-12T18:58:06.111Z,97965.31
2023-03-12T19:01:14.025Z,97967.31
2023-03-12T19:04:26.040Z,97966.47
2023-03-12T19:07:32.022Z,97961.44
2023-03-12T19:10:38.775Z,97964.38
2023-03-12T19:13:49.664Z,97973.03
2023-03-12T19:16:56.459Z,97965.66
2023-03-12T19:20:06.153Z,97962.97
2023-03-12T19:23:12.870Z,97965.88
2023-03-12T19:26:18.616Z,97953.66
2023-03-12T19:29:25.386Z,97962.16
2023-03-12T19:32:42.559Z,97955.69
2023-03-12T19:35:54.591Z,97965.28
2023-03-12T19:39:02.364Z,97961.69
2023-03-12T19:42:11.384Z,97957.50
2023-03-12T19:45:17.144Z,97967.31
2023-03-12T19:48:25.378Z,97964.72
2023-03-12T19:51:34.370Z,97959.69
2023-03-12T19:54:44.064Z,97951.66
2023-03-12T19:57:51.162Z,97947.41
2023-03-12T20:01:00.430Z,97948.34
2023-03-12T20:04:08.538Z,97945.94
2023-03-12T20:07:18.729Z,97943.94
2023-03-12T20:10:26.009Z,97930.00
2023-03-12T20:13:32.877Z,97927.56
2023-03-12T20:16:39.096Z,97921.38
2023-03-12T20:19:45.846Z,97911.88
2023-03-12T20:22:57.338Z,97905.41
2023-03-12T20:26:04.109Z,97905.16
2023-03-12T20:29:10.122Z,97888.50
2023-03-12T20:32:16.866Z,97890.38
2023-03-12T20:35:22.698Z,97874.44
2023-03-12T20:38:31.876Z,97871.00
2023-03-12T20:41:38.797Z,97860.06
2023-03-12T20:44:45.407Z,97862.31
2023-03-12T20:47:51.392Z,97857.25
2023-03-12T20:50:58.724Z,97842.91
2023-03-12T20:54:07.426Z,97856.00
2023-03-12T20:57:13.916Z,97848.59
2023-03-12T21:00:21.677Z,97850.97
2023-03-12T21:03:28.428Z,97859.97
2023-03-12T21:06:34.213Z,97863.97
2023-03-12T21:09:43.447Z,97853.69
2023-03-12T21:12:49.457Z,97849.63
2023-03-12T21:15:56.412Z,97842.91
2023-03-12T21:19:02.793Z,97858.34
2023-03-12T21:22:09.601Z,97860.06
2023-03-12T21:25:18.979Z,97868.31
2023-03-12T21:28:25.592Z,97860.34
2023-03-12T21:31:31.522Z,97861.97
2023-03-12T21:34:38.461Z,97858.38
2023-03-12T21:37:44.664Z,97859.34
2023-03-12T21:40:54.499Z,97864.56
2023-03-12T21:44:05.242Z,97861.44
2023-03-12T21:47:12.177Z,97858.25
2023-03-12T21:50:18.149Z,97854.53
2023-03-12T21:53:24.753Z,97850.97
2023-03-12T21:56:33.263Z,97857.94
2023-03-12T21:59:40.331Z,97848.72
2023-03-12T22:02:51.310Z,97862.72
2023-03-12T22:05:57.938Z,97850.16
2023-03-12T22:09:03.796Z,97851.34
2023-03-12T22:12:13.626Z,97852.53
2023-03-12T22:15:19.541Z,97852.44
2023-03-12T22:18:27.185Z,97852.47
2023-03-12T22:21:33.897Z,97852.22
2023-03-12T22:24:40.955Z,97845.00
2023-03-12T22:27:49.665Z,97846.94
2023-03-12T22:31:01.999Z,97846.72
2023-03-12T22:34:07.987Z,97845.38
2023-03-12T22:37:15.403Z,97849.25
2023-03-12T22:40:21.457Z,97853.53
2023-03-12T22:43:31.422Z,97823.25
2023-03-12T22:46:37.418Z,97829.44
2023-03-12T22:49:44.264Z,97832.69
2023-03-12T22:52:51.017Z,97836.72
2023-03-12T22:56:01.861Z,97840.16
2023-03-12T22:59:10.290Z,97854.72
2023-03-12T23:02:17.244Z,97855.03
2023-03-12T23:05:23.546Z,97848.72
2023-03-12T23:08:31.854Z,97840.44
2023-03-12T23:11:38.008Z,97835.41
2023-03-12T23:14:47.403Z,97841.25
2023-03-12T23:17:53.078Z,97845.94
2023-03-12T23:21:02.482Z,97843.84
2023-03-12T23:24:09.406Z,97841.75
2023-03-12T23:27:15.948Z,97838.03
2023-03-12T23:30:24.586Z,97841.66
2023-03-12T23:33:33.124Z,97845.50
2023-03-12T23:36:39.188Z,97837.53
2023-03-12T23:39:54.360Z,97841.28
2023-03-12T23:43:00.846Z,97849.63
2023-03-12T23:46:12.799Z,97836.56
2023-03-12T23:49:18.686Z,97840.59
2023-03-12T23:52:28.618Z,97837.16
2023-03-12T23:55:34.457Z,97826.78
2023-03-12T23:58:41.558Z,97837.72
